Time;durP1;ratioP1;P1;durP2;ratioP2;P2;SDS_P1;SDS_P2;PMS_P1;PMS_P2;Temp;Humidity;BMP_temperature;BMP_pressure;BME280_temperature;BME280_humidity;BME280_pressure;Samples;Min_cycle;Max_cycle;Signal;HPM_P1;HPM_P2
2022/07/19 06:04:45;;;;;;;9.70;8.75;;;;;;;;;;6180200;23;20036;-92
2022/07/19 06:07:11;;;;;;;9.88;8.95;;;;;;;;;;6195468;23;20013;-95
2022/07/19 06:09:36;;;;;;;9.32;8.43;;;;;;;;;;6219174;23;20024;-95
2022/07/19 06:12:02;;;;;;;11.30;8.68;;;;;;;;;;6217392;23;20000;-93
2022/07/19 06:14:28;;;;;;;8.60;7.70;;;;;;;;;;6188716;23;20004;-96
2022/07/19 09:15:55;;;;;;;9.02;7.93;;;;;;;;;;6216391;23;20317;-93
2022/07/19 09:18:26;;;;;;;10.07;8.30;;;;;;;;;;6218078;23;20017;-92
2022/07/19 09:20:56;;;;;;;9.00;8.20;;;;;;;;;;6221008;23;20056;-88
2022/07/19 09:23:23;;;;;;;9.07;7.82;;;;;;;;;;6188656;23;20009;-91
2022/07/19 09:25:54;;;;;;;8.30;7.53;;;;;;;;;;6188872;23;20047;-89
2022/07/19 09:28:21;;;;;;;9.15;8.25;;;;;;;;;;6187799;23;20076;-84
2022/07/19 09:30:50;;;;;;;8.30;7.60;;;;;;;;;;6186110;23;20005;-88
2022/07/19 09:33:24;;;;;;;8.40;7.53;;;;;;;;;;6161182;23;20008;-88
2022/07/19 09:35:54;;;;;;;7.95;6.80;;;;;;;;;;6188180;23;20004;-90
2022/07/19 09:38:30;;;;;;;8.27;7.30;;;;;;;;;;6187539;23;20461;-89
2022/07/19 09:41:14;;;;;;;8.02;7.25;;;;;;;;;;6186100;23;20055;-89
2022/07/19 09:43:58;;;;;;;7.47;6.72;;;;;;;;;;6161098;23;20009;-90
2022/07/19 09:46:42;;;;;;;8.80;7.10;;;;;;;;;;6161029;23;20067;-89
2022/07/19 09:49:12;;;;;;;7.93;6.95;;;;;;;;;;6161111;23;20009;-90
2022/07/19 09:51:40;;;;;;;7.88;7.00;;;;;;;;;;6187248;23;20005;-89
2022/07/19 09:54:07;;;;;;;8.30;7.05;;;;;;;;;;6187182;23;20416;-89
2022/07/19 09:56:33;;;;;;;8.10;7.30;;;;;;;;;;6187594;23;20444;-89
2022/07/19 09:58:59;;;;;;;7.85;7.05;;;;;;;;;;6187645;23;20076;-86
2022/07/19 10:01:26;;;;;;;8.57;7.75;;;;;;;;;;6187314;23;20008;-88
2022/07/19 10:03:56;;;;;;;9.20;8.25;;;;;;;;;;6187455;23;20462;-87
2022/07/19 10:06:23;;;;;;;9.60;8.80;;;;;;;;;;6187267;23;20005;-88
2022/07/19 10:08:50;;;;;;;8.88;7.97;;;;;;;;;;6187239;23;20001;-88
2022/07/19 10:11:16;;;;;;;9.27;8.32;;;;;;;;;;6187625;23;20084;-87
2022/07/19 10:13:41;;;;;;;9.25;7.32;;;;;;;;;;6187403;23;19997;-87
2022/07/19 10:16:15;;;;;;;8.85;8.05;;;;;;;;;;6187055;23;20025;-89
2022/07/19 10:19:01;;;;;;;8.93;8.02;;;;;;;;;;6187122;23;20345;-88
2022/07/19 10:21:26;;;;;;;14.63;8.50;;;;;;;;;;6187496;23;20005;-88
2022/07/19 10:23:53;;;;;;;8.43;7.72;;;;;;;;;;6187662;23;20001;-87
2022/07/19 10:26:38;;;;;;;8.23;7.43;;;;;;;;;;6187090;23;20499;-90
2022/07/19 10:29:30;;;;;;;8.35;7.55;;;;;;;;;;6187405;23;20008;-88
2022/07/19 10:32:07;;;;;;;8.30;6.38;;;;;;;;;;6181447;23;20035;-86
2022/07/19 10:34:33;;;;;;;9.52;6.55;;;;;;;;;;6187124;23;20011;-91
2022/07/19 10:36:58;;;;;;;9.55;6.10;;;;;;;;;;6185620;23;20057;-90
2022/07/19 10:39:35;;;;;;;5.78;4.68;;;;;;;;;;6187304;23;20040;-90
2022/07/19 10:42:12;;;;;;;8.70;6.00;;;;;;;;;;6160531;23;20318;-89
2022/07/19 10:44:55;;;;;;;7.68;4.97;;;;;;;;;;6186877;23;20028;-89
2022/07/19 10:47:21;;;;;;;7.35;5.20;;;;;;;;;;6187014;23;20310;-88
2022/07/19 10:49:48;;;;;;;5.53;5.03;;;;;;;;;;6186944;23;20052;-87
2022/07/19 10:52:29;;;;;;;5.28;4.57;;;;;;;;;;6186406;23;20332;-90
2022/07/19 10:55:20;;;;;;;5.53;4.85;;;;;;;;;;6185965;23;20056;-88
2022/07/19 10:58:11;;;;;;;6.18;4.80;;;;;;;;;;6186713;23;20001;-87
2022/07/19 11:00:47;;;;;;;7.85;4.35;;;;;;;;;;6187639;23;20009;-88
2022/07/19 11:03:22;;;;;;;6.72;4.80;;;;;;;;;;6187105;23;20009;-85
2022/07/19 11:05:50;;;;;;;7.00;4.35;;;;;;;;;;6186151;23;20001;-87
2022/07/19 11:08:16;;;;;;;7.57;4.68;;;;;;;;;;6186829;23;20008;-87
2022/07/19 11:10:41;;;;;;;7.47;4.00;;;;;;;;;;6186665;23;20005;-88
2022/07/19 11:13:07;;;;;;;6.00;4.15;;;;;;;;;;6186619;23;20435;-87
2022/07/19 11:15:33;;;;;;;5.88;4.40;;;;;;;;;;6186686;23;20017;-86
2022/07/19 11:18:02;;;;;;;4.65;4.28;;;;;;;;;;6160378;23;20004;-87
2022/07/19 11:20:33;;;;;;;4.40;4.00;;;;;;;;;;6187039;23;20028;-86
2022/07/19 11:23:00;;;;;;;7.10;3.78;;;;;;;;;;6186704;23;19997;-88
2022/07/19 11:25:36;;;;;;;4.72;3.63;;;;;;;;;;6186775;23;20001;-87
2022/07/19 11:28:02;;;;;;;4.72;3.30;;;;;;;;;;6186798;23;20008;-87
2022/07/19 11:30:32;;;;;;;9.02;3.58;;;;;;;;;;6186676;23;20405;-87
2022/07/19 11:33:03;;;;;;;4.18;3.80;;;;;;;;;;6186839;23;20001;-88
2022/07/19 11:35:29;;;;;;;5.50;3.40;;;;;;;;;;6186747;23;20013;-83
2022/07/19 11:37:57;;;;;;;4.50;3.90;;;;;;;;;;6186522;23;20310;-87
2022/07/19 11:40:24;;;;;;;6.20;3.90;;;;;;;;;;6187218;23;20075;-87
2022/07/19 11:42:51;;;;;;;6.88;3.47;;;;;;;;;;6186352;23;20001;-87
2022/07/19 11:45:20;;;;;;;10.52;3.35;;;;;;;;;;6186602;23;20005;-87
2022/07/19 11:47:51;;;;;;;5.97;3.70;;;;;;;;;;6186472;23;20425;-84
2022/07/19 17:03:36;;;;;;;3.75;3.35;;;;;;;;;;6202376;23;20028;-91
2022/07/19 17:06:01;;;;;;;3.97;3.63;;;;;;;;;;6220730;23;20431;-89
2022/07/19 17:08:27;;;;;;;3.50;3.20;;;;;;;;;;6223266;23;20001;-91
2022/07/19 17:10:52;;;;;;;7.03;3.70;;;;;;;;;;6177080;23;20006;-87
2022/07/19 17:13:18;;;;;;;4.38;3.03;;;;;;;;;;6189848;23;20005;-91
2022/07/19 17:15:43;;;;;;;4.30;3.08;;;;;;;;;;6192093;23;20005;-88
2022/07/19 17:18:09;;;;;;;3.45;3.15;;;;;;;;;;6189977;23;20005;-86
2022/07/19 17:20:34;;;;;;;4.75;3.17;;;;;;;;;;6189059;23;20012;-86
2022/07/19 17:23:01;;;;;;;3.13;2.83;;;;;;;;;;6188685;23;20059;-88
2022/07/19 17:25:27;;;;;;;5.60;3.78;;;;;;;;;;6188668;23;20376;-87
2022/07/19 17:27:52;;;;;;;3.42;3.13;;;;;;;;;;6188592;23;20005;-88
2022/07/19 17:30:18;;;;;;;4.80;3.60;;;;;;;;;;6188903;23;20093;-84
2022/07/19 17:32:43;;;;;;;6.65;6.05;;;;;;;;;;6188734;23;20028;-85
2022/07/19 17:35:09;;;;;;;4.68;4.18;;;;;;;;;;6188859;23;20459;-85
2022/07/19 17:37:36;;;;;;;4.35;3.95;;;;;;;;;;6188819;23;20017;-85
2022/07/19 17:40:03;;;;;;;6.45;4.30;;;;;;;;;;6188014;23;20450;-85
2022/07/19 17:42:28;;;;;;;4.40;3.83;;;;;;;;;;6187833;23;20459;-85
2022/07/19 17:44:54;;;;;;;4.97;2.90;;;;;;;;;;6189906;23;20001;-87
2022/07/19 17:47:19;;;;;;;5.00;3.35;;;;;;;;;;6189065;23;20008;-87
2022/07/19 17:49:45;;;;;;;3.60;3.30;;;;;;;;;;6191962;23;20029;-86
2022/07/19 17:52:10;;;;;;;5.07;3.45;;;;;;;;;;6194797;23;20158;-87
2022/07/19 17:54:36;;;;;;;3.92;3.10;;;;;;;;;;6194358;23;20416;-88
2022/07/19 17:57:05;;;;;;;3.58;3.00;;;;;;;;;;6163661;23;20424;-88
2022/07/19 17:59:30;;;;;;;3.95;3.08;;;;;;;;;;6188369;23;20005;-88
2022/07/19 18:01:56;;;;;;;3.35;3.05;;;;;;;;;;6188544;23;20079;-88
2022/07/19 18:04:21;;;;;;;3.33;3.03;;;;;;;;;;6188096;23;20009;-87
2022/07/19 18:06:47;;;;;;;5.07;2.90;;;;;;;;;;6187911;23;20332;-86
2022/07/19 18:40:14;;;;;;;4.38;3.97;;;;;;;;;;6207177;23;20029;-89
2022/07/19 20:58:13;;;;;;;3.78;3.20;;;;;;;;;;6217406;23;20044;-85
2022/07/19 21:00:38;;;;;;;4.20;3.17;;;;;;;;;;6221060;23;20015;-87
2022/07/19 21:03:04;;;;;;;4.10;3.30;;;;;;;;;;6221375;23;20437;-89
2022/07/19 21:05:30;;;;;;;5.15;3.20;;;;;;;;;;6194890;23;20024;-86
2022/07/19 21:07:56;;;;;;;3.60;3.17;;;;;;;;;;6188540;23;20005;-87
2022/07/19 21:10:22;;;;;;;3.47;3.17;;;;;;;;;;6189450;23;20008;-88
2022/07/19 21:12:48;;;;;;;3.30;3.08;;;;;;;;;;6189610;23;20012;-86
2022/07/19 21:15:13;;;;;;;4.35;3.25;;;;;;;;;;6189255;23;20004;-88
2022/07/19 21:17:39;;;;;;;6.15;3.13;;;;;;;;;;6187853;23;20372;-89
2022/07/19 21:20:05;;;;;;;3.40;3.20;;;;;;;;;;6189603;23;20088;-86
2022/07/19 21:22:30;;;;;;;4.35;3.72;;;;;;;;;;6189770;23;20054;-88
2022/07/19 21:24:56;;;;;;;3.30;3.05;;;;;;;;;;6189087;23;20084;-84
2022/07/19 21:27:22;;;;;;;3.35;2.90;;;;;;;;;;6189372;23;20019;-85
2022/07/19 21:29:47;;;;;;;3.15;2.90;;;;;;;;;;6189224;23;20005;-84
2022/07/19 21:32:12;;;;;;;3.83;3.50;;;;;;;;;;6189262;23;20039;-85
2022/07/19 21:34:38;;;;;;;4.63;3.47;;;;;;;;;;6189185;23;20009;-87
2022/07/19 21:37:04;;;;;;;3.33;3.10;;;;;;;;;;6189259;23;20020;-86
2022/07/19 21:39:30;;;;;;;3.80;3.50;;;;;;;;;;6189472;23;20421;-87
2022/07/19 21:41:55;;;;;;;3.45;3.15;;;;;;;;;;6189138;23;20369;-86
2022/07/19 21:44:21;;;;;;;3.95;3.50;;;;;;;;;;6187605;23;20008;-89
2022/07/19 21:46:46;;;;;;;3.47;3.17;;;;;;;;;;6189326;23;20009;-85
2022/07/19 21:49:12;;;;;;;3.60;3.30;;;;;;;;;;6195808;23;20005;-86
